Time;durP1;ratioP1;P1;durP2;ratioP2;P2;SDS_P1;SDS_P2;PMS_P1;PMS_P2;Temp;Humidity;BMP_temperature;BMP_pressure;BME280_temperature;BME280_humidity;BME280_pressure;Samples;Min_cycle;Max_cycle;Signal;HPM_P1;HPM_P2
2023/04/10 00:00:03;;;;;;;;;;;;;;;28.10;23.42;100974.13;5088724;28;1035;-29
2023/04/10 00:02:30;;;;;;;;;;;;;;;27.65;24.57;100976.69;5082706;28;1074;-29
2023/04/10 00:04:55;;;;;;;;;;;;;;;28.95;22.91;100972.13;5088986;28;1044;-28
2023/04/10 00:07:21;;;;;;;;;;;;;;;28.69;23.22;100968.94;5099914;28;1178;-28
2023/04/10 00:09:46;;;;;;;;;;;;;;;28.60;23.44;100968.19;5099282;28;1074;-28
2023/04/10 00:12:13;;;;;;;;;;;;;;;28.63;23.23;100963.44;5098860;28;1054;-30
2023/04/10 00:14:39;;;;;;;;;;;;;;;28.70;23.05;100965.19;5099213;28;1073;-29
2023/04/10 00:17:04;;;;;;;;;;;;;;;28.45;23.15;100965.50;5098999;28;1136;-28
2023/04/10 00:19:30;;;;;;;;;;;;;;;28.06;24.04;100963.84;5099450;28;1094;-29
2023/04/10 00:21:55;;;;;;;;;;;;;;;28.90;23.05;100967.31;5099452;28;1170;-28
2023/04/10 00:24:21;;;;;;;;;;;;;;;29.61;22.19;100959.56;5098134;28;1972;-29
2023/04/10 00:26:47;;;;;;;;;;;;;;;29.73;22.08;100965.25;5099288;28;1094;-28
2023/04/10 00:29:12;;;;;;;;;;;;;;;29.29;22.64;100964.44;5098972;28;1133;-29
2023/04/10 00:31:38;;;;;;;;;;;;;;;29.21;22.73;100960.78;5098890;28;1147;-28
2023/04/10 00:34:04;;;;;;;;;;;;;;;29.28;22.50;100955.44;5107454;28;1146;-33
2023/04/10 00:36:30;;;;;;;;;;;;;;;29.43;22.35;100957.25;5091146;28;1065;-28
2023/04/10 00:38:56;;;;;;;;;;;;;;;29.09;22.53;100949.63;5098563;28;1027;-28
2023/04/10 00:41:22;;;;;;;;;;;;;;;28.28;23.76;100942.34;5098810;28;1046;-31
2023/04/10 00:43:48;;;;;;;;;;;;;;;29.20;22.76;100942.03;5080201;28;1980;-29
2023/04/10 00:46:14;;;;;;;;;;;;;;;29.03;22.78;100941.44;5098684;28;1074;-30
2023/04/10 00:48:40;;;;;;;;;;;;;;;29.05;22.88;100939.38;5098262;28;1174;-29
2023/04/10 00:51:06;;;;;;;;;;;;;;;29.08;22.67;100944.41;5067382;28;1098;-28
2023/04/10 00:53:31;;;;;;;;;;;;;;;29.15;22.59;100939.91;5080099;28;1306;-28
2023/04/10 00:55:57;;;;;;;;;;;;;;;28.94;22.63;100933.41;5063686;28;1015;-30
2023/04/10 00:58:22;;;;;;;;;;;;;;;28.44;23.52;100931.34;5080327;28;1106;-30
2023/04/10 01:00:48;;;;;;;;;;;;;;;29.16;22.64;100933.44;5098005;28;1105;-29
2023/04/10 01:03:14;;;;;;;;;;;;;;;29.67;22.07;100926.22;5080366;28;1909;-33
2023/04/10 01:05:43;;;;;;;;;;;;;;;29.91;21.71;100924.09;5099135;28;1142;-32
2023/04/10 01:08:31;;;;;;;;;;;;;;;30.04;21.56;100928.78;5083708;28;1316;-33
2023/04/10 01:11:01;;;;;;;;;;;;;;;29.42;22.18;100918.50;5077747;28;2202;-30
2023/04/10 01:13:27;;;;;;;;;;;;;;;29.04;22.64;100919.59;5086984;28;1634;-28
2023/04/10 01:16:15;;;;;;;;;;;;;;;28.47;23.30;100914.75;5073963;28;1195;-30
2023/04/10 01:18:43;;;;;;;;;;;;;;;29.31;22.61;100913.59;5093599;28;1039;-31
2023/04/10 01:21:10;;;;;;;;;;;;;;;29.77;21.98;100914.19;5098159;28;1011;-29
2023/04/10 01:23:41;;;;;;;;;;;;;;;29.85;21.88;100916.75;5077577;28;1909;-29
2023/04/10 01:26:10;;;;;;;;;;;;;;;29.90;21.59;100917.00;5091324;28;833;-31
2023/04/10 01:28:55;;;;;;;;;;;;;;;28.91;22.73;100917.53;5079926;28;1271;-30
2023/04/10 01:31:33;;;;;;;;;;;;;;;28.51;23.29;100909.75;5083507;28;1338;-32
2023/04/10 01:34:00;;;;;;;;;;;;;;;27.68;24.31;100911.47;5085808;28;1094;-28
2023/04/10 01:36:29;;;;;;;;;;;;;;;29.43;22.33;100917.44;5097591;28;1039;-32
2023/04/10 01:38:55;;;;;;;;;;;;;;;29.83;21.78;100910.69;5071486;28;824;-28
2023/04/10 01:41:21;;;;;;;;;;;;;;;29.12;22.15;100915.06;5077859;28;1050;-32
2023/04/10 01:43:47;;;;;;;;;;;;;;;28.36;23.48;100913.34;5097576;28;1902;-29
2023/04/10 01:46:12;;;;;;;;;;;;;;;29.24;22.71;100916.25;5079102;28;1052;-27
2023/04/10 01:48:38;;;;;;;;;;;;;;;29.58;22.17;100916.50;5079533;28;1217;-28
2023/04/10 01:51:04;;;;;;;;;;;;;;;29.79;21.73;100921.13;5065804;28;1182;-29
2023/04/10 01:53:30;;;;;;;;;;;;;;;29.72;22.00;100908.53;5079153;28;1169;-28
2023/04/10 01:55:56;;;;;;;;;;;;;;;28.87;22.94;100901.84;5078620;28;1282;-28
2023/04/10 01:58:21;;;;;;;;;;;;;;;28.53;23.25;100898.78;5096867;28;1125;-29
2023/04/10 02:00:47;;;;;;;;;;;;;;;27.83;24.16;100897.13;5078620;28;1217;-28
2023/04/10 02:03:14;;;;;;;;;;;;;;;28.94;22.74;100902.78;5072043;28;1902;-29
2023/04/10 02:05:42;;;;;;;;;;;;;;;29.68;21.96;100897.22;5091516;28;1087;-29
2023/04/10 02:08:11;;;;;;;;;;;;;;;29.84;21.68;100900.69;5096932;28;1050;-28
2023/04/10 02:10:44;;;;;;;;;;;;;;;29.95;21.54;100892.00;5079202;28;1151;-29
2023/04/10 02:13:10;;;;;;;;;;;;;;;29.13;22.41;100893.19;5061171;28;1090;-29
2023/04/10 02:15:35;;;;;;;;;;;;;;;28.84;22.82;100889.56;5078684;28;1178;-28
2023/04/10 02:18:03;;;;;;;;;;;;;;;28.23;23.51;100886.06;5096507;28;1105;-33
2023/04/10 02:20:29;;;;;;;;;;;;;;;28.83;23.05;100891.41;5079368;28;1151;-31
2023/04/10 02:22:56;;;;;;;;;;;;;;;29.65;21.93;100887.63;5096885;28;1901;-32
2023/04/10 02:25:23;;;;;;;;;;;;;;;29.61;21.60;100883.66;5078620;28;1130;-29
2023/04/10 02:27:49;;;;;;;;;;;;;;;28.56;22.96;100877.56;5086068;28;1148;-30
2023/04/10 02:30:15;;;;;;;;;;;;;;;29.07;22.59;100877.72;5080325;28;1158;-30
2023/04/10 02:32:42;;;;;;;;;;;;;;;29.53;22.14;100881.88;5078860;28;1095;-31
2023/04/10 02:35:08;;;;;;;;;;;;;;;29.74;21.92;100882.06;5077590;28;1065;-29
2023/04/10 02:37:36;;;;;;;;;;;;;;;29.70;21.92;100887.88;5063104;28;1297;-32
2023/04/10 02:40:02;;;;;;;;;;;;;;;29.05;22.44;100885.19;5079422;28;1035;-30
2023/04/10 02:42:36;;;;;;;;;;;;;;;28.56;22.95;100880.28;5070584;28;1395;-28
2023/04/10 02:45:02;;;;;;;;;;;;;;;27.97;23.77;100879.28;5078341;28;1169;-28
2023/04/10 02:47:33;;;;;;;;;;;;;;;28.71;22.97;100882.94;5078442;28;1272;-29
2023/04/10 02:49:59;;;;;;;;;;;;;;;29.53;22.13;100875.63;5090276;28;1208;-30
2023/04/10 02:52:29;;;;;;;;;;;;;;;29.70;22.00;100882.47;5072018;28;1825;-33
2023/04/10 02:54:55;;;;;;;;;;;;;;;29.83;21.70;100883.56;5065108;28;1323;-30
2023/04/10 02:57:21;;;;;;;;;;;;;;;28.41;22.29;100876.78;5070783;28;1511;-30
2023/04/10 02:59:50;;;;;;;;;;;;;;;27.19;22.23;100883.84;5058606;28;1162;-29
2023/04/10 03:02:16;;;;;;;;;;;;;;;26.08;21.19;100873.88;5070420;28;1166;-29
2023/04/10 03:04:42;;;;;;;;;;;;;;;28.20;17.56;100872.91;5072500;28;1972;-33
2023/04/10 03:07:08;;;;;;;;;;;;;;;28.40;16.35;100873.22;5065830;28;1362;-32
2023/04/10 03:09:36;;;;;;;;;;;;;;;27.82;17.11;100866.59;5074574;28;1306;-30
2023/04/10 03:12:02;;;;;;;;;;;;;;;28.19;16.41;100866.69;5061133;28;1907;-28
2023/04/10 03:14:27;;;;;;;;;;;;;;;28.05;16.89;100876.47;5075182;28;1133;-28
2023/04/10 03:16:53;;;;;;;;;;;;;;;28.12;16.84;100871.16;5074994;28;1257;-30
2023/04/10 03:19:19;;;;;;;;;;;;;;;28.28;16.59;100880.13;5082169;28;1277;-29
2023/04/10 03:21:45;;;;;;;;;;;;;;;28.28;16.78;100872.00;5082038;28;1549;-32
2023/04/10 03:24:10;;;;;;;;;;;;;;;28.24;16.88;100875.06;5100427;28;1980;-27
2023/04/10 03:26:36;;;;;;;;;;;;;;;28.28;17.15;100862.00;5100329;28;1198;-30
2023/04/10 03:29:02;;;;;;;;;;;;;;;28.26;17.47;100868.63;5092823;28;1077;-31
2023/04/10 03:31:28;;;;;;;;;;;;;;;28.26;17.27;100861.34;5062307;28;1182;-29
2023/04/10 03:33:56;;;;;;;;;;;;;;;28.22;17.31;100855.50;5082077;28;1150;-28
2023/04/10 03:36:22;;;;;;;;;;;;;;;28.06;17.65;100856.50;5081625;28;1225;-28
2023/04/10 03:38:47;;;;;;;;;;;;;;;28.19;17.28;100850.47;5092450;28;879;-30
2023/04/10 03:41:13;;;;;;;;;;;;;;;28.11;17.50;100856.78;5062078;28;1183;-29
2023/04/10 03:43:39;;;;;;;;;;;;;;;28.26;17.41;100849.72;5061633;28;1902;-27
2023/04/10 03:46:06;;;;;;;;;;;;;;;28.38;17.36;100845.50;5076444;28;1272;-27
2023/04/10 03:48:37;;;;;;;;;;;;;;;28.42;17.64;100849.53;5081915;28;1158;-29
2023/04/10 03:51:03;;;;;;;;;;;;;;;28.07;17.72;100846.53;5079608;28;1221;-29
2023/04/10 03:53:29;;;;;;;;;;;;;;;28.74;17.62;100849.25;5061725;28;1328;-27
2023/04/10 03:55:54;;;;;;;;;;;;;;;29.05;17.40;100850.00;5063756;28;1174;-26
2023/04/10 03:58:22;;;;;;;;;;;;;;;29.11;17.85;100856.50;5081530;28;1641;-28
2023/04/10 04:00:49;;;;;;;;;;;;;;;28.00;18.75;100851.84;5079573;28;1514;-30
2023/04/10 04:03:36;;;;;;;;;;;;;;;28.30;18.30;100854.53;5069591;28;1973;-27
2023/04/10 04:06:24;;;;;;;;;;;;;;;28.53;18.02;100860.91;5070198;28;1338;-27
2023/04/10 04:09:12;;;;;;;;;;;;;;;28.36;18.18;100856.50;5085846;28;1210;-30
2023/04/10 04:12:01;;;;;;;;;;;;;;;28.51;17.95;100863.75;5091568;28;1133;-27
2023/04/10 04:14:47;;;;;;;;;;;;;;;29.09;18.29;100862.13;5065586;28;1244;-28
2023/04/10 04:17:31;;;;;;;;;;;;;;;28.89;19.33;100862.75;5099114;28;1024;-29
2023/04/10 04:20:17;;;;;;;;;;;;;;;28.81;19.80;100865.56;5097835;28;1517;-27
2023/04/10 04:22:42;;;;;;;;;;;;;;;28.79;20.19;100865.78;5083259;28;1983;-25
2023/04/10 04:25:36;;;;;;;;;;;;;;;28.68;20.56;100869.78;5078973;28;1492;-26
2023/04/10 04:28:17;;;;;;;;;;;;;;;27.92;21.42;100862.75;5079837;28;1003;-26
2023/04/10 04:30:57;;;;;;;;;;;;;;;29.11;20.55;100867.34;5096899;28;1052;-26
2023/04/10 04:33:46;;;;;;;;;;;;;;;29.64;19.89;100864.28;5060668;28;1477;-26
2023/04/10 04:36:50;;;;;;;;;;;;;;;29.16;20.42;100864.91;5055927;28;1236;-26
2023/04/10 04:39:47;;;;;;;;;;;;;;;29.05;20.56;100872.50;5043155;28;1725;-26
2023/04/10 04:42:22;;;;;;;;;;;;;;;28.92;20.81;100872.34;5087828;28;1195;-27
2023/04/10 04:45:20;;;;;;;;;;;;;;;28.76;21.33;100876.94;5056433;28;1237;-26
2023/04/10 04:48:15;;;;;;;;;;;;;;;28.26;21.77;100866.75;5085153;28;1288;-27
2023/04/10 04:50:59;;;;;;;;;;;;;;;28.30;21.92;100859.94;5085801;28;873;-27
2023/04/10 04:53:44;;;;;;;;;;;;;;;29.50;20.83;100871.44;5080608;28;1158;-27
2023/04/10 04:56:28;;;;;;;;;;;;;;;29.80;20.27;100865.84;5085758;28;1054;-26
2023/04/10 04:59:17;;;;;;;;;;;;;;;30.01;20.13;100868.69;5058591;28;1276;-28
2023/04/10 05:01:56;;;;;;;;;;;;;;;29.36;20.87;100861.53;5080299;28;1131;-26
2023/04/10 05:04:40;;;;;;;;;;;;;;;29.08;21.26;100868.56;5080091;28;1906;-29
2023/04/10 05:07:29;;;;;;;;;;;;;;;28.63;21.66;100866.00;5098189;28;1560;-28
2023/04/10 05:10:13;;;;;;;;;;;;;;;29.37;21.16;100871.31;5098150;28;1288;-29
2023/04/10 05:12:59;;;;;;;;;;;;;;;29.08;21.61;100865.84;5096646;28;1296;-28
2023/04/10 05:15:45;;;;;;;;;;;;;;;28.98;21.46;100877.00;5072373;28;1005;-28
2023/04/10 05:18:28;;;;;;;;;;;;;;;29.01;21.82;100868.50;5085542;28;969;-26
2023/04/10 05:21:04;;;;;;;;;;;;;;;28.99;21.91;100878.69;5097959;28;1138;-26
2023/04/10 05:23:48;;;;;;;;;;;;;;;28.27;22.56;100873.00;5098086;28;1909;-26
2023/04/10 05:26:34;;;;;;;;;;;;;;;28.68;22.12;100868.94;5097032;28;1409;-28
2023/04/10 05:29:10;;;;;;;;;;;;;;;29.31;21.29;100870.25;5068082;28;1252;-27
2023/04/10 05:31:56;;;;;;;;;;;;;;;29.01;22.02;100873.91;5079949;28;1301;-29
2023/04/10 05:34:56;;;;;;;;;;;;;;;28.99;21.99;100870.56;4995241;28;1180;-26
2023/04/10 05:37:51;;;;;;;;;;;;;;;29.07;21.96;100877.72;5083286;28;1152;-29
2023/04/10 05:40:43;;;;;;;;;;;;;;;28.52;22.57;100872.72;5048437;28;1438;-28
2023/04/10 05:43:29;;;;;;;;;;;;;;;28.59;22.41;100874.47;5065613;28;1905;-27
2023/04/10 05:46:01;;;;;;;;;;;;;;;29.78;21.29;100877.94;5090269;28;1023;-28
2023/04/10 05:48:41;;;;;;;;;;;;;;;29.11;21.86;100872.75;5079688;28;1424;-27
2023/04/10 05:51:39;;;;;;;;;;;;;;;27.91;23.56;100874.63;5036511;28;1255;-26
2023/04/10 05:54:34;;;;;;;;;;;;;;;29.56;21.56;100883.38;5040054;28;1294;-28
2023/04/10 05:57:13;;;;;;;;;;;;;;;30.06;21.11;100877.06;5070701;28;1121;-27
2023/04/10 05:59:57;;;;;;;;;;;;;;;28.48;22.57;100881.22;5084291;28;945;-27
2023/04/10 06:02:23;;;;;;;;;;;;;;;27.87;23.93;100882.25;5097273;28;1245;-26
2023/04/10 06:04:50;;;;;;;;;;;;;;;29.34;22.01;100888.81;5072217;28;1988;-29
2023/04/10 06:07:15;;;;;;;;;;;;;;;29.83;21.40;100886.28;5076492;28;1345;-26
2023/04/10 06:09:41;;;;;;;;;;;;;;;30.02;21.06;100889.31;5097415;28;1098;-26
2023/04/10 06:12:08;;;;;;;;;;;;;;;28.21;23.34;100891.66;5078866;28;1188;-27
2023/04/10 06:14:35;;;;;;;;;;;;;;;28.37;23.38;100887.13;5078865;28;1289;-27
2023/04/10 06:17:01;;;;;;;;;;;;;;;29.44;21.93;100889.34;5078631;28;1276;-27
2023/04/10 06:19:26;;;;;;;;;;;;;;;29.84;21.66;100887.13;5078832;28;1186;-27
2023/04/10 06:21:52;;;;;;;;;;;;;;;30.00;21.28;100892.25;5097405;28;1153;-27
2023/04/10 06:24:17;;;;;;;;;;;;;;;28.39;23.16;100885.06;5096962;28;1982;-26
2023/04/10 06:26:45;;;;;;;;;;;;;;;27.88;24.05;100892.03;5063615;28;1066;-27
2023/04/10 06:29:11;;;;;;;;;;;;;;;29.46;22.21;100902.69;5069543;28;1150;-28
2023/04/10 06:31:37;;;;;;;;;;;;;;;29.82;21.72;100900.88;5058072;28;1434;-26
2023/04/10 06:34:03;;;;;;;;;;;;;;;29.18;22.11;100906.16;5076384;28;1225;-28
2023/04/10 06:36:29;;;;;;;;;;;;;;;28.14;23.51;100898.88;5058470;28;1312;-27
2023/04/10 06:39:05;;;;;;;;;;;;;;;29.21;22.70;100903.09;5074454;28;1092;-27
2023/04/10 06:41:31;;;;;;;;;;;;;;;29.76;22.10;100904.41;5058034;28;1277;-28
2023/04/10 06:44:06;;;;;;;;;;;;;;;30.11;21.47;100906.28;5058116;28;1906;-27
2023/04/10 06:46:31;;;;;;;;;;;;;;;28.42;23.16;100903.63;5075755;28;1230;-27
2023/04/10 06:48:57;;;;;;;;;;;;;;;28.10;23.65;100906.50;5076357;28;1310;-27
2023/04/10 06:51:22;;;;;;;;;;;;;;;29.45;22.27;100906.41;5092380;28;1139;-28
2023/04/10 06:53:48;;;;;;;;;;;;;;;29.89;21.50;100912.63;5076204;28;1254;-27
2023/04/10 06:56:14;;;;;;;;;;;;;;;28.66;22.62;100898.91;5076009;28;1225;-29
2023/04/10 06:58:40;;;;;;;;;;;;;;;27.94;23.96;100912.09;5075513;28;1198;-27
2023/04/10 07:01:05;;;;;;;;;;;;;;;29.21;22.47;100905.78;5075819;28;1218;-28
2023/04/10 07:03:31;;;;;;;;;;;;;;;29.77;22.08;100908.78;5078407;28;1985;-27
2023/04/10 07:05:57;;;;;;;;;;;;;;;29.30;22.41;100914.59;5075831;28;1399;-29
2023/04/10 07:08:22;;;;;;;;;;;;;;;28.17;24.05;100908.47;5058209;28;1301;-29
2023/04/10 07:10:48;;;;;;;;;;;;;;;29.13;22.72;100909.44;5075730;28;1411;-27
2023/04/10 07:13:14;;;;;;;;;;;;;;;29.76;21.99;100909.81;5075736;28;1229;-28
2023/04/10 07:15:39;;;;;;;;;;;;;;;29.24;22.43;100902.69;5079533;28;1246;-30
2023/04/10 07:18:05;;;;;;;;;;;;;;;28.23;23.62;100897.72;5084835;28;1097;-28
2023/04/10 07:20:31;;;;;;;;;;;;;;;29.20;22.78;100902.25;5094369;28;1071;-29
2023/04/10 07:22:56;;;;;;;;;;;;;;;28.48;23.62;100907.44;5096322;28;1906;-31
2023/04/10 07:25:22;;;;;;;;;;;;;;;28.55;23.34;100900.25;5093161;28;1170;-29
2023/04/10 07:27:47;;;;;;;;;;;;;;;28.90;23.10;100904.19;5079860;28;1163;-27
2023/04/10 07:30:13;;;;;;;;;;;;;;;28.82;23.46;100906.00;5095968;28;1181;-28
2023/04/10 07:32:40;;;;;;;;;;;;;;;28.89;23.09;100902.50;5096092;28;1074;-29
2023/04/10 07:35:06;;;;;;;;;;;;;;;28.95;23.38;100909.84;5096418;28;1161;-27
2023/04/10 07:37:32;;;;;;;;;;;;;;;29.27;22.91;100910.44;5095953;28;1062;-31
2023/04/10 07:39:57;;;;;;;;;;;;;;;28.79;23.64;100900.13;5093444;28;1074;-27
2023/04/10 07:42:23;;;;;;;;;;;;;;;28.89;22.83;100908.78;5085548;28;1461;-30
2023/04/10 07:44:48;;;;;;;;;;;;;;;28.76;23.46;100905.91;5095829;28;1989;-27
2023/04/10 07:47:14;;;;;;;;;;;;;;;28.88;23.17;100895.44;5081769;28;1492;-28
2023/04/10 07:49:40;;;;;;;;;;;;;;;28.61;23.69;100895.97;5104845;28;829;-27
2023/04/10 07:52:06;;;;;;;;;;;;;;;28.56;23.39;100892.97;5094012;28;1119;-26
2023/04/10 07:54:33;;;;;;;;;;;;;;;29.38;22.86;100886.56;5085705;28;991;-26
2023/04/10 07:56:58;;;;;;;;;;;;;;;28.49;23.60;100879.38;5091597;28;903;-29
2023/04/10 07:59:24;;;;;;;;;;;;;;;28.56;23.46;100874.03;5079712;28;1162;-27
2023/04/10 08:01:49;;;;;;;;;;;;;;;29.00;23.48;100882.22;5079511;28;1012;-27
2023/04/10 08:04:15;;;;;;;;;;;;;;;28.60;23.71;100868.06;5080809;28;1910;-27
2023/04/10 08:06:40;;;;;;;;;;;;;;;28.77;23.63;100872.38;5078203;28;1135;-27
2023/04/10 08:09:06;;;;;;;;;;;;;;;28.93;23.56;100874.84;5083636;28;1269;-30
2023/04/10 08:11:33;;;;;;;;;;;;;;;29.10;23.05;100869.22;5084445;28;995;-27
2023/04/10 08:14:02;;;;;;;;;;;;;;;28.67;23.88;100865.41;5098320;28;1099;-29
2023/04/10 08:16:31;;;;;;;;;;;;;;;28.72;23.71;100864.84;5097752;28;1023;-30
2023/04/10 08:18:57;;;;;;;;;;;;;;;29.14;23.27;100861.53;5098335;28;1075;-27
2023/04/10 08:21:22;;;;;;;;;;;;;;;28.55;23.48;100859.66;5098010;28;1114;-27
2023/04/10 08:23:55;;;;;;;;;;;;;;;29.08;23.28;100863.16;5100445;28;1967;-27
2023/04/10 08:26:20;;;;;;;;;;;;;;;29.06;23.30;100857.91;5098016;28;1083;-27
2023/04/10 08:28:48;;;;;;;;;;;;;;;28.47;23.63;100854.34;5097479;28;1070;-28
2023/04/10 08:31:14;;;;;;;;;;;;;;;28.80;23.22;100862.03;5097904;28;1062;-30
2023/04/10 08:33:40;;;;;;;;;;;;;;;28.98;23.31;100854.53;5097867;28;1026;-29
2023/04/10 08:36:07;;;;;;;;;;;;;;;29.10;23.32;100858.38;5097531;28;1010;-27
2023/04/10 08:38:32;;;;;;;;;;;;;;;28.50;23.90;100853.97;5097764;28;998;-27
2023/04/10 08:40:58;;;;;;;;;;;;;;;28.58;24.10;100856.56;5090035;28;1006;-29
2023/04/10 08:43:24;;;;;;;;;;;;;;;29.25;23.18;100862.88;5076549;28;1917;-27
2023/04/10 08:45:51;;;;;;;;;;;;;;;28.20;24.19;100854.00;5077755;28;1082;-28
2023/04/10 08:48:16;;;;;;;;;;;;;;;28.70;23.45;100856.91;5058570;28;1250;-27
2023/04/10 08:50:42;;;;;;;;;;;;;;;28.86;23.85;100855.00;5076763;28;1218;-26
2023/04/10 08:53:12;;;;;;;;;;;;;;;28.70;23.59;100847.94;5060010;28;1239;-30
2023/04/10 08:55:38;;;;;;;;;;;;;;;28.43;24.24;100851.19;5089538;28;1230;-27
2023/04/10 08:58:03;;;;;;;;;;;;;;;28.59;23.89;100846.59;5079076;28;1210;-27
2023/04/10 09:00:30;;;;;;;;;;;;;;;29.09;23.45;100851.28;5097227;28;1222;-28
2023/04/10 09:02:57;;;;;;;;;;;;;;;28.22;24.33;100835.72;5097420;28;1983;-27
2023/04/10 09:05:28;;;;;;;;;;;;;;;28.35;24.04;100835.06;5092450;28;1074;-27
2023/04/10 09:07:54;;;;;;;;;;;;;;;28.95;23.53;100826.75;5088927;28;1087;-26
2023/04/10 09:10:20;;;;;;;;;;;;;;;28.85;23.36;100829.78;5097308;28;1081;-26
2023/04/10 09:12:46;;;;;;;;;;;;;;;28.04;24.23;100822.59;5096712;28;991;-27
2023/04/10 09:15:12;;;;;;;;;;;;;;;28.45;24.04;100822.09;5097135;28;911;-31
2023/04/10 09:17:53;;;;;;;;;;;;;;;29.22;23.17;100815.34;5097326;28;835;-29
2023/04/10 09:20:22;;;;;;;;;;;;;;;28.03;24.48;100810.91;5096660;28;994;-28
2023/04/10 09:22:48;;;;;;;;;;;;;;;28.13;24.15;100802.50;5097222;28;1074;-29
2023/04/10 09:25:32;;;;;;;;;;;;;;;28.88;23.57;100815.03;5096362;28;1909;-28
2023/04/10 09:28:05;;;;;;;;;;;;;;;28.35;24.17;100800.75;5097396;28;1067;-29
2023/04/10 09:30:34;;;;;;;;;;;;;;;28.17;24.40;100795.72;5096427;28;875;-29
2023/04/10 09:33:00;;;;;;;;;;;;;;;28.65;24.07;100797.09;5097384;28;1135;-32
2023/04/10 09:35:33;;;;;;;;;;;;;;;28.51;23.92;100806.13;5097027;28;860;-30
2023/04/10 09:37:59;;;;;;;;;;;;;;;28.31;24.35;100799.41;5097100;28;1003;-26
2023/04/10 09:40:25;;;;;;;;;;;;;;;28.54;24.39;100798.47;5065708;28;848;-27
2023/04/10 09:42:50;;;;;;;;;;;;;;;29.03;23.58;100792.50;5082717;28;990;-29
2023/04/10 09:45:19;;;;;;;;;;;;;;;27.39;22.81;100778.00;5077959;28;1914;-29
2023/04/10 09:47:59;;;;;;;;;;;;;;;26.44;23.90;100772.81;5096220;28;1138;-29
2023/04/10 09:50:33;;;;;;;;;;;;;;;28.24;23.45;100782.28;5096654;28;1014;-27
2023/04/10 09:52:58;;;;;;;;;;;;;;;28.83;22.41;100774.16;5092395;28;1058;-29
2023/04/10 09:55:24;;;;;;;;;;;;;;;26.71;23.18;100776.81;5094491;28;1198;-27
2023/04/10 09:57:49;;;;;;;;;;;;;;;26.08;24.13;100772.28;5095686;28;1499;-30
2023/04/10 10:00:15;;;;;;;;;;;;;;;28.28;22.98;100780.84;5095968;28;1127;-26
2023/04/10 10:02:41;;;;;;;;;;;;;;;28.88;21.83;100779.00;5096054;28;1179;-29
2023/04/10 10:05:06;;;;;;;;;;;;;;;27.60;21.62;100779.97;5093470;28;1905;-28
2023/04/10 10:07:32;;;;;;;;;;;;;;;26.15;23.69;100757.09;5075387;28;1163;-29
2023/04/10 10:09:59;;;;;;;;;;;;;;;27.58;23.48;100768.50;5075019;28;1214;-28
2023/04/10 10:12:25;;;;;;;;;;;;;;;28.65;22.02;100769.19;5056793;28;1242;-28
2023/04/10 10:15:00;;;;;;;;;;;;;;;28.40;21.67;100759.59;5075515;28;1309;-28
2023/04/10 10:17:28;;;;;;;;;;;;;;;27.43;24.24;100757.69;5078108;28;1019;-29
2023/04/10 10:20:00;;;;;;;;;;;;;;;27.58;24.00;100754.97;5074774;28;1246;-27
2023/04/10 10:22:27;;;;;;;;;;;;;;;28.94;22.35;100752.00;5081195;28;1080;-29
2023/04/10 10:24:55;;;;;;;;;;;;;;;27.78;23.90;100750.94;5095331;28;1993;-28
2023/04/10 10:27:21;;;;;;;;;;;;;;;27.69;24.15;100744.78;5078099;28;1133;-28
2023/04/10 10:29:47;;;;;;;;;;;;;;;28.70;22.96;100750.50;5095206;28;1098;-28
2023/04/10 10:32:13;;;;;;;;;;;;;;;28.35;23.23;100743.09;5077006;28;1082;-29
2023/04/10 10:34:38;;;;;;;;;;;;;;;27.96;24.19;100740.53;5077576;28;1162;-31
2023/04/10 10:37:04;;;;;;;;;;;;;;;28.60;23.34;100748.97;5077657;28;1142;-27
2023/04/10 10:39:32;;;;;;;;;;;;;;;28.90;22.91;100737.16;5095248;28;1134;-27
2023/04/10 10:42:00;;;;;;;;;;;;;;;27.80;24.31;100735.34;5078533;28;1142;-28
2023/04/10 10:44:36;;;;;;;;;;;;;;;28.03;24.37;100727.09;5096686;28;1921;-29
2023/04/10 10:47:37;;;;;;;;;;;;;;;28.65;23.64;100726.72;5095920;28;1274;-27
2023/04/10 10:50:03;;;;;;;;;;;;;;;27.90;23.18;100716.97;5052766;28;1357;-29
2023/04/10 10:52:41;;;;;;;;;;;;;;;27.32;23.62;100712.22;5083048;28;1036;-30
2023/04/10 10:55:26;;;;;;;;;;;;;;;28.38;23.24;100704.81;5095009;28;884;-29
2023/04/10 10:57:52;;;;;;;;;;;;;;;29.09;21.90;100707.75;5096115;28;1130;-31
2023/04/10 11:00:18;;;;;;;;;;;;;;;27.37;23.46;100696.28;5095830;28;1027;-29
2023/04/10 11:02:44;;;;;;;;;;;;;;;27.14;23.78;100694.53;5095840;28;1050;-29
2023/04/10 11:05:09;;;;;;;;;;;;;;;28.51;23.03;100698.69;5087183;28;1898;-31
2023/04/10 11:07:53;;;;;;;;;;;;;;;28.84;24.72;100700.03;5079690;28;1101;-29
2023/04/10 11:10:39;;;;;;;;;;;;;;;26.88;31.10;100693.03;5089207;28;1075;-29
2023/04/10 11:13:14;;;;;;;;;;;;;;;27.91;26.53;100688.06;5096105;28;1146;-31
2023/04/10 11:15:40;;;;;;;;;;;;;;;28.62;24.19;100694.66;5092447;28;1022;-29
2023/04/10 11:18:05;;;;;;;;;;;;;;;26.88;26.08;100680.38;5083320;28;1161;-30
2023/04/10 11:20:31;;;;;;;;;;;;;;;27.14;27.16;100689.13;5095859;28;1170;-29
2023/04/10 11:23:07;;;;;;;;;;;;;;;28.52;25.23;100691.44;5077787;28;1389;-29
2023/04/10 11:25:48;;;;;;;;;;;;;;;28.06;25.37;100680.75;5095656;28;1023;-28
2023/04/10 11:28:31;;;;;;;;;;;;;;;26.98;27.66;100676.56;5096060;28;1057;-30
2023/04/10 11:31:18;;;;;;;;;;;;;;;28.11;25.75;100683.72;5081675;28;912;-29
2023/04/10 11:34:02;;;;;;;;;;;;;;;29.02;24.27;100677.06;5084897;28;1155;-28
2023/04/10 11:36:27;;;;;;;;;;;;;;;26.28;26.65;100681.00;5099659;28;1276;-27
2023/04/10 11:38:55;;;;;;;;;;;;;;;27.03;26.55;100668.78;5081784;28;1075;-28
2023/04/10 11:41:20;;;;;;;;;;;;;;;28.59;23.89;100670.69;5099310;28;1206;-29
2023/04/10 11:43:50;;;;;;;;;;;;;;;27.47;25.87;100669.84;5097671;28;1973;-31
2023/04/10 11:46:15;;;;;;;;;;;;;;;27.66;25.55;100672.16;5087973;28;1226;-28
2023/04/10 11:48:41;;;;;;;;;;;;;;;28.44;24.73;100685.13;5079566;28;1146;-27
2023/04/10 11:51:10;;;;;;;;;;;;;;;28.83;24.26;100672.13;5078002;28;1052;-28
2023/04/10 11:53:36;;;;;;;;;;;;;;;27.94;24.77;100669.63;5080947;28;1131;-28
2023/04/10 11:56:02;;;;;;;;;;;;;;;28.33;24.82;100666.69;5079131;28;1301;-28
2023/04/10 11:58:29;;;;;;;;;;;;;;;28.71;24.57;100671.00;5079168;28;1035;-31
2023/04/10 12:00:58;;;;;;;;;;;;;;;28.07;25.20;100668.06;5091518;28;1003;-27
2023/04/10 12:03:30;;;;;;;;;;;;;;;28.08;24.77;100664.31;5099431;28;1988;-28
2023/04/10 12:05:56;;;;;;;;;;;;;;;28.60;24.46;100659.66;5099285;28;1039;-31
2023/04/10 12:08:29;;;;;;;;;;;;;;;29.11;24.09;100659.66;5079554;28;1083;-28
2023/04/10 12:10:55;;;;;;;;;;;;;;;28.13;24.72;100658.38;5079197;28;1115;-30
2023/04/10 12:13:24;;;;;;;;;;;;;;;28.18;24.73;100662.16;5086734;28;1043;-29
2023/04/10 12:15:49;;;;;;;;;;;;;;;28.87;24.36;100658.19;5099244;28;1109;-30
2023/04/10 12:18:15;;;;;;;;;;;;;;;28.40;24.51;100654.06;5094552;28;1215;-29
2023/04/10 12:20:41;;;;;;;;;;;;;;;28.21;24.97;100653.66;5091495;28;915;-29
2023/04/10 12:23:06;;;;;;;;;;;;;;;28.69;24.50;100635.16;5097100;28;1987;-28
2023/04/10 12:25:34;;;;;;;;;;;;;;;29.05;24.05;100633.34;5078818;28;1107;-28
2023/04/10 12:27:59;;;;;;;;;;;;;;;28.07;24.95;100639.16;5082790;28;1203;-28
2023/04/10 12:30:25;;;;;;;;;;;;;;;28.22;24.75;100630.16;5079780;28;1143;-29
2023/04/10 12:32:52;;;;;;;;;;;;;;;28.95;24.16;100626.38;5077567;28;1199;-28
2023/04/10 12:35:17;;;;;;;;;;;;;;;28.24;24.73;100615.38;5076745;28;1415;-30
2023/04/10 12:37:50;;;;;;;;;;;;;;;28.40;24.36;100629.72;5076571;28;1202;-29
2023/04/10 12:40:15;;;;;;;;;;;;;;;28.76;24.39;100622.50;5077123;28;1191;-30
2023/04/10 12:42:41;;;;;;;;;;;;;;;29.04;23.96;100613.56;5078658;28;1195;-28
2023/04/10 12:45:08;;;;;;;;;;;;;;;28.16;24.74;100614.72;5076837;28;1969;-28
2023/04/10 12:47:51;;;;;;;;;;;;;;;28.60;24.29;100608.25;5076976;28;1308;-31
2023/04/10 12:50:17;;;;;;;;;;;;;;;28.92;23.98;100606.97;5096424;28;1187;-31
2023/04/10 12:52:43;;;;;;;;;;;;;;;28.60;24.15;100604.69;5097038;28;1194;-28
2023/04/10 12:55:15;;;;;;;;;;;;;;;28.57;24.57;100595.09;5087552;28;1183;-28
2023/04/10 12:57:41;;;;;;;;;;;;;;;28.82;24.31;100593.81;5076425;28;1385;-29
2023/04/10 13:00:11;;;;;;;;;;;;;;;28.92;24.09;100601.56;5077749;28;1210;-29
2023/04/10 13:02:37;;;;;;;;;;;;;;;28.31;24.24;100598.41;5085415;28;1206;-28